createdAt,value
2022-10-24T00:00:43.813Z,14.87
2022-10-24T00:03:11.438Z,14.87
2022-10-24T00:05:42.161Z,14.87
2022-10-24T00:08:08.869Z,14.86
2022-10-24T00:10:36.871Z,14.82
2022-10-24T00:13:03.983Z,14.81
2022-10-24T00:15:31.506Z,14.78
2022-10-24T00:17:57.912Z,14.82
2022-10-24T00:20:24.294Z,14.81
2022-10-24T00:22:50.862Z,14.78
2022-10-24T00:25:17.327Z,14.82
2022-10-24T00:27:43.826Z,14.83
2022-10-24T00:30:10.680Z,14.84
2022-10-24T00:32:37.085Z,14.84
2022-10-24T00:35:04.225Z,14.79
2022-10-24T00:37:30.748Z,14.83
2022-10-24T00:39:57.170Z,14.84
2022-10-24T00:42:23.800Z,14.82
2022-10-24T00:44:53.116Z,14.80
2022-10-24T00:47:22.059Z,14.78
2022-10-24T00:49:50.634Z,14.76
2022-10-24T00:52:23.910Z,14.74
2022-10-24T00:54:53.154Z,14.71
2022-10-24T00:57:25.539Z,14.67
2022-10-24T00:59:57.790Z,14.69
2022-10-24T01:02:24.814Z,14.65
2022-10-24T01:04:51.180Z,14.69
2022-10-24T01:07:32.650Z,14.70
2022-10-24T01:10:17.914Z,14.72
2022-10-24T01:13:02.446Z,14.70
2022-10-24T01:15:44.144Z,14.68
2022-10-24T01:18:16.428Z,14.63
2022-10-24T01:20:55.116Z,14.64
2022-10-24T01:23:35.765Z,14.64
2022-10-24T01:26:28.490Z,14.59
2022-10-24T01:29:23.718Z,14.65
2022-10-24T01:32:08.166Z,14.64
2022-10-24T01:34:48.319Z,14.65
2022-10-24T01:37:59.086Z,14.67
2022-10-24T01:40:38.237Z,14.68
2022-10-24T01:43:14.978Z,14.64
2022-10-24T01:45:48.232Z,14.64
2022-10-24T01:48:20.234Z,14.70
2022-10-24T01:50:49.546Z,14.72
2022-10-24T01:53:16.842Z,14.71
2022-10-24T01:55:45.477Z,14.73
2022-10-24T01:58:11.891Z,14.73
2022-10-24T02:00:38.634Z,14.75
2022-10-24T02:03:16.594Z,14.75
2022-10-24T02:05:49.170Z,14.80
2022-10-24T02:08:21.850Z,14.83
2022-10-24T02:10:52.348Z,14.83
2022-10-24T02:13:29.082Z,14.83
2022-10-24T02:15:58.920Z,14.80
2022-10-24T02:18:26.024Z,14.84
2022-10-24T02:21:05.634Z,14.85
2022-10-24T02:23:47.477Z,14.89
2022-10-24T02:26:22.623Z,14.92
2022-10-24T02:28:53.532Z,14.95
2022-10-24T02:31:24.685Z,14.99
2022-10-24T02:33:51.628Z,15.01
2022-10-24T02:36:24.124Z,15.01
2022-10-24T02:38:53.732Z,14.99
2022-10-24T02:41:24.233Z,15.01
2022-10-24T02:43:53.240Z,15.02
2022-10-24T02:46:20.679Z,15.03
2022-10-24T02:48:59.240Z,15.02
2022-10-24T02:51:30.165Z,15.01
2022-10-24T02:53:58.404Z,15.03
2022-10-24T02:56:24.797Z,15.01
2022-10-24T02:58:51.185Z,15.05
2022-10-24T03:01:17.720Z,15.06
2022-10-24T03:03:44.325Z,15.09
2022-10-24T03:06:10.750Z,15.10
2022-10-24T03:08:37.145Z,15.09
2022-10-24T03:11:03.915Z,15.10
2022-10-24T03:13:30.327Z,15.09
2022-10-24T03:15:56.749Z,15.11
2022-10-24T03:18:23.164Z,15.12
2022-10-24T03:20:49.588Z,15.12
2022-10-24T03:23:16.547Z,15.12
2022-10-24T03:25:42.970Z,15.08
2022-10-24T03:28:09.338Z,15.10
2022-10-24T03:30:35.780Z,15.11
2022-10-24T03:33:02.318Z,15.12
2022-10-24T03:35:28.718Z,15.16
2022-10-24T03:37:55.162Z,15.16
2022-10-24T03:40:21.533Z,15.22
2022-10-24T03:42:48.258Z,15.17
2022-10-24T03:45:15.671Z,15.19
2022-10-24T03:47:42.096Z,15.25
2022-10-24T03:50:08.661Z,15.26
2022-10-24T03:52:35.040Z,15.27
2022-10-24T03:55:01.478Z,15.28
2022-10-24T03:57:27.952Z,15.27
2022-10-24T03:59:54.349Z,15.26
2022-10-24T04:02:20.831Z,15.26
2022-10-24T04:04:47.282Z,15.27
2022-10-24T04:07:13.694Z,15.23
2022-10-24T04:09:40.058Z,15.21
2022-10-24T04:12:06.475Z,15.20
2022-10-24T04:14:32.913Z,15.19
2022-10-24T04:16:59.448Z,15.19
2022-10-24T04:19:25.964Z,15.21
2022-10-24T04:21:52.431Z,15.21
2022-10-24T04:24:18.888Z,15.21
2022-10-24T04:26:45.278Z,15.19
2022-10-24T04:29:11.687Z,15.23
2022-10-24T04:31:38.182Z,15.22
2022-10-24T04:34:05.494Z,15.20
2022-10-24T04:36:33.029Z,15.18
2022-10-24T04:41:26.862Z,15.14
2022-10-24T04:43:53.339Z,15.10
2022-10-24T04:46:19.746Z,15.09
2022-10-24T04:48:46.204Z,15.06
2022-10-24T04:51:13.182Z,15.07
2022-10-24T04:53:39.697Z,15.03
2022-10-24T04:56:06.491Z,15.02
2022-10-24T04:58:32.987Z,15.01
2022-10-24T05:00:59.395Z,14.97
2022-10-24T05:03:25.800Z,14.94
2022-10-24T05:05:52.233Z,14.92
2022-10-24T05:08:18.727Z,14.89
2022-10-24T05:10:45.568Z,14.84
2022-10-24T05:13:12.203Z,14.86
2022-10-24T05:15:38.693Z,14.83
2022-10-24T05:18:05.250Z,14.81
2022-10-24T05:20:31.863Z,14.79
2022-10-24T05:22:58.247Z,14.77
2022-10-24T05:25:24.714Z,14.74
2022-10-24T05:27:51.090Z,14.73
2022-10-24T05:30:17.678Z,14.72
2022-10-24T05:32:44.327Z,14.67
2022-10-24T05:35:11.004Z,14.63
2022-10-24T05:37:38.975Z,14.59
2022-10-24T05:40:07.894Z,14.54
2022-10-24T05:42:34.312Z,14.54
2022-10-24T05:45:00.690Z,14.54
2022-10-24T05:47:29.162Z,14.52
2022-10-24T05:49:55.869Z,14.51
2022-10-24T05:52:22.286Z,14.51
2022-10-24T05:54:55.652Z,14.53
2022-10-24T05:57:33.038Z,14.53
2022-10-24T05:59:59.536Z,14.50
2022-10-24T06:02:26.767Z,14.54
2022-10-24T06:04:54.920Z,14.56
2022-10-24T06:07:21.607Z,14.59
2022-10-24T06:09:47.998Z,14.62
2022-10-24T06:12:14.496Z,14.67
2022-10-24T06:14:41.114Z,14.68
2022-10-24T06:17:09.141Z,14.69
2022-10-24T06:19:36.748Z,14.66
2022-10-24T06:22:05.150Z,14.66
2022-10-24T06:24:33.905Z,14.65
2022-10-24T06:27:00.258Z,14.60
2022-10-24T06:29:26.664Z,14.60
2022-10-24T06:31:53.126Z,14.55
2022-10-24T06:36:50.881Z,14.46
2022-10-24T06:39:17.374Z,14.44
2022-10-24T06:41:43.786Z,14.45
2022-10-24T06:44:14.660Z,14.45
2022-10-24T06:46:41.084Z,14.45
2022-10-24T06:49:07.814Z,14.44
2022-10-24T06:51:34.383Z,14.52
2022-10-24T06:54:00.894Z,14.52
2022-10-24T06:56:27.279Z,14.54
2022-10-24T06:58:53.749Z,14.57
2022-10-24T07:01:22.333Z,14.60
2022-10-24T07:03:49.227Z,14.62
2022-10-24T07:08:51.036Z,14.66
2022-10-24T07:11:17.700Z,14.67
2022-10-24T07:13:44.114Z,14.71
2022-10-24T07:16:11.014Z,14.71
2022-10-24T07:18:37.718Z,14.76
2022-10-24T07:21:05.845Z,14.80
2022-10-24T07:23:33.415Z,14.80
2022-10-24T07:26:05.329Z,14.81
2022-10-24T07:28:32.265Z,14.76
2022-10-24T07:30:59.181Z,14.74
2022-10-24T07:33:25.850Z,14.74
2022-10-24T07:35:52.232Z,14.72
2022-10-24T07:38:18.889Z,14.69
2022-10-24T07:40:45.931Z,14.67
2022-10-24T07:43:12.857Z,14.62
2022-10-24T07:45:40.297Z,14.63
2022-10-24T07:48:06.970Z,14.61
2022-10-24T07:50:35.276Z,14.65
2022-10-24T07:53:01.695Z,14.65
2022-10-24T07:55:28.105Z,14.64
2022-10-24T07:57:54.512Z,14.64
2022-10-24T08:00:21.205Z,14.64
2022-10-24T08:05:22.165Z,14.66
2022-10-24T08:07:55.848Z,14.77
2022-10-24T08:10:26.762Z,14.89
2022-10-24T08:12:53.128Z,15.00
2022-10-24T08:15:19.566Z,15.06
2022-10-24T08:17:45.929Z,15.09
2022-10-24T08:20:12.437Z,15.07
2022-10-24T08:22:38.899Z,15.03
2022-10-24T08:25:08.098Z,14.99
2022-10-24T08:27:34.539Z,14.95
2022-10-24T08:30:00.930Z,14.89
2022-10-24T08:32:27.319Z,14.84
2022-10-24T08:34:53.742Z,14.82
2022-10-24T08:37:20.132Z,14.82
2022-10-24T08:39:46.497Z,14.82
2022-10-24T08:42:16.114Z,14.83
2022-10-24T08:44:47.248Z,14.82
2022-10-24T08:50:24.694Z,14.89
2022-10-24T08:52:57.454Z,14.90
2022-10-24T08:55:49.322Z,14.96
2022-10-24T08:58:21.403Z,15.00
2022-10-24T09:00:50.585Z,15.02
2022-10-24T09:06:27.516Z,15.12
2022-10-24T09:09:11.494Z,15.14
2022-10-24T09:11:51.154Z,15.21
2022-10-24T09:14:18.803Z,15.26
2022-10-24T09:16:50.449Z,15.32
2022-10-24T09:19:20.891Z,15.40
2022-10-24T09:21:48.293Z,15.45
2022-10-24T09:24:33.830Z,15.45
2022-10-24T09:27:04.432Z,15.44
2022-10-24T09:29:32.438Z,15.40
2022-10-24T09:31:59.725Z,15.36
2022-10-24T09:34:26.371Z,15.33
2022-10-24T09:36:52.789Z,15.29
2022-10-24T09:39:31.969Z,15.25
2022-10-24T09:42:00.502Z,15.22
2022-10-24T09:44:33.304Z,15.21
2022-10-24T09:47:01.009Z,15.18
2022-10-24T09:49:34.555Z,15.16
2022-10-24T09:52:24.031Z,15.07
2022-10-24T09:55:16.939Z,15.05
2022-10-24T09:57:43.981Z,15.03
2022-10-24T10:00:26.681Z,14.99
2022-10-24T10:03:04.092Z,14.97
2022-10-24T10:05:47.101Z,14.96
2022-10-24T10:08:25.315Z,14.93
2022-10-24T10:11:04.371Z,14.90
2022-10-24T10:13:37.597Z,14.88
2022-10-24T10:16:05.717Z,14.87
2022-10-24T10:18:38.138Z,14.84
2022-10-24T10:21:05.182Z,14.81
2022-10-24T10:23:36.305Z,14.78
2022-10-24T10:26:29.174Z,14.81
2022-10-24T10:29:18.138Z,14.81
2022-10-24T10:31:50.614Z,14.82
2022-10-24T10:34:23.048Z,14.82
2022-10-24T10:37:23.114Z,14.78
2022-10-24T10:40:15.020Z,14.76
2022-10-24T10:43:00.175Z,14.73
2022-10-24T10:45:32.785Z,14.70
2022-10-24T10:48:35.965Z,14.72
2022-10-24T10:51:19.411Z,14.69
2022-10-24T10:54:22.560Z,14.70
2022-10-24T10:56:56.559Z,14.69
2022-10-24T10:59:39.984Z,14.66
2022-10-24T11:02:34.151Z,14.66
2022-10-24T11:05:40.228Z,14.66
2022-10-24T11:08:22.063Z,14.63
2022-10-24T11:11:22.963Z,14.66
2022-10-24T11:14:10.854Z,14.66
2022-10-24T11:16:39.654Z,14.66
2022-10-24T11:19:14.203Z,14.65
2022-10-24T11:21:43.434Z,14.64
2022-10-24T11:24:17.233Z,14.67
2022-10-24T11:26:50.653Z,14.68
2022-10-24T11:29:28.897Z,14.70
2022-10-24T11:32:01.300Z,14.71
2022-10-24T11:34:52.773Z,14.75
2022-10-24T11:37:24.328Z,14.76
2022-10-24T11:39:59.320Z,14.73
2022-10-24T11:42:49.627Z,14.71
2022-10-24T11:45:21.338Z,14.76
2022-10-24T11:48:24.666Z,14.80
2022-10-24T11:50:59.493Z,14.81
2022-10-24T11:53:28.697Z,14.85
2022-10-24T11:56:01.076Z,14.89
2022-10-24T11:58:31.320Z,14.94
2022-10-24T12:01:04.748Z,14.98
2022-10-24T12:03:57.552Z,15.00
2022-10-24T12:06:42.691Z,14.97
2022-10-24T12:09:50.477Z,14.92
2022-10-24T12:12:22.765Z,14.87
2022-10-24T12:15:02.932Z,14.82
2022-10-24T12:17:40.196Z,14.82
2022-10-24T12:20:13.636Z,14.79
2022-10-24T12:22:44.035Z,14.84
2022-10-24T12:25:22.328Z,14.84
2022-10-24T12:28:18.092Z,14.82
2022-10-24T12:31:13.974Z,14.81
2022-10-24T12:33:42.420Z,14.78
2022-10-24T12:36:09.993Z,14.81
2022-10-24T12:38:36.398Z,14.84
2022-10-24T12:41:06.841Z,14.86
2022-10-24T12:43:39.102Z,14.90
2022-10-24T12:46:15.216Z,14.93
2022-10-24T12:49:05.649Z,14.94
2022-10-24T12:51:39.190Z,14.91
2022-10-24T12:54:11.477Z,14.94
2022-10-24T12:56:50.263Z,14.95
2022-10-24T12:59:22.534Z,14.92
2022-10-24T13:01:51.556Z,14.92
2022-10-24T13:04:46.428Z,14.92
2022-10-24T13:07:13.113Z,14.90
2022-10-24T13:09:58.740Z,14.89
2022-10-24T13:12:34.657Z,14.86
2022-10-24T13:15:39.383Z,14.85
2022-10-24T13:18:14.851Z,14.82
2022-10-24T13:20:44.547Z,14.78
2022-10-24T13:23:22.422Z,14.84
2022-10-24T13:25:53.336Z,14.87
2022-10-24T13:28:19.769Z,14.93
2022-10-24T13:30:49.571Z,14.96
2022-10-24T13:33:36.319Z,15.03
2022-10-24T13:36:08.697Z,15.06
2022-10-24T13:38:46.311Z,15.10
2022-10-24T13:41:19.733Z,15.09
2022-10-24T13:43:49.373Z,15.12
2022-10-24T13:46:43.735Z,15.19
2022-10-24T13:49:22.354Z,15.17
2022-10-24T13:51:52.536Z,15.15
2022-10-24T13:54:26.873Z,15.11
2022-10-24T13:56:55.988Z,15.09
2022-10-24T13:59:31.231Z,15.05
2022-10-24T14:02:01.008Z,15.00
2022-10-24T14:04:28.342Z,14.96
2022-10-24T14:07:02.495Z,14.93
2022-10-24T14:09:29.292Z,14.90
2022-10-24T14:11:59.258Z,14.86
2022-10-24T14:14:32.761Z,14.88
2022-10-24T14:17:23.611Z,14.87
2022-10-24T14:19:59.322Z,14.83
2022-10-24T14:22:30.231Z,14.85
2022-10-24T14:24:57.081Z,14.83
2022-10-24T14:27:23.884Z,14.83
2022-10-24T14:29:59.147Z,14.84
2022-10-24T14:32:27.400Z,14.85
2022-10-24T14:34:55.459Z,14.85
2022-10-24T14:37:35.554Z,14.87
2022-10-24T14:40:04.950Z,14.84
2022-10-24T14:42:32.314Z,14.78
2022-10-24T14:44:59.914Z,14.75
2022-10-24T14:47:31.500Z,14.73
2022-10-24T14:50:00.901Z,14.71
2022-10-24T14:52:27.236Z,14.68
2022-10-24T14:55:05.119Z,14.66
2022-10-24T14:57:33.729Z,14.65
2022-10-24T15:00:07.350Z,14.61
2022-10-24T15:02:42.007Z,14.59
2022-10-24T15:05:22.777Z,14.59
2022-10-24T15:08:16.833Z,14.60
2022-10-24T15:10:43.794Z,14.58
2022-10-24T15:13:24.289Z,14.55
2022-10-24T15:15:58.129Z,14.63
2022-10-24T15:18:29.229Z,15.27
2022-10-24T15:21:07.688Z,15.91
2022-10-24T15:23:37.843Z,16.42
2022-10-24T15:26:18.736Z,16.62
2022-10-24T15:28:48.387Z,16.39
2022-10-24T15:31:20.248Z,16.02
2022-10-24T15:33:47.861Z,15.71
2022-10-24T15:36:31.438Z,15.46
2022-10-24T15:39:00.609Z,15.25
2022-10-24T15:41:27.758Z,15.08
2022-10-24T15:43:55.425Z,14.94
2022-10-24T15:46:24.721Z,14.85
2022-10-24T15:48:51.120Z,14.76
2022-10-24T15:51:22.938Z,14.71
2022-10-24T15:53:50.263Z,14.61
2022-10-24T15:56:17.366Z,14.53
2022-10-24T15:58:44.029Z,14.46
2022-10-24T16:01:26.839Z,14.41
2022-10-24T16:03:53.568Z,14.36
2022-10-24T16:06:21.839Z,14.33
2022-10-24T16:08:49.056Z,14.28
2022-10-24T16:11:15.787Z,14.23
2022-10-24T16:13:42.346Z,14.19
2022-10-24T16:16:08.827Z,14.13
2022-10-24T16:18:36.398Z,14.11
2022-10-24T16:21:04.974Z,14.07
2022-10-24T16:23:32.074Z,14.07
2022-10-24T16:25:58.502Z,14.05
2022-10-24T16:28:25.972Z,14.04
2022-10-24T16:30:52.687Z,14.00
2022-10-24T16:33:20.176Z,13.93
2022-10-24T16:35:49.806Z,13.92
2022-10-24T16:38:16.488Z,13.91
2022-10-24T16:40:46.436Z,13.90
2022-10-24T16:43:16.216Z,13.90
2022-10-24T16:45:43.047Z,13.88
2022-10-24T16:48:10.616Z,13.85
2022-10-24T16:50:41.433Z,13.83
2022-10-24T16:53:08.772Z,13.82
2022-10-24T16:55:35.171Z,13.85
2022-10-24T16:58:01.641Z,13.84
2022-10-24T17:00:28.590Z,13.84
2022-10-24T17:02:57.864Z,13.84
2022-10-24T17:05:26.999Z,13.81
2022-10-24T17:07:53.920Z,13.80
2022-10-24T17:10:23.799Z,13.78
2022-10-24T17:12:51.403Z,13.78
2022-10-24T17:15:21.905Z,13.75
2022-10-24T17:17:49.375Z,13.70
2022-10-24T17:20:17.188Z,13.68
2022-10-24T17:22:44.794Z,13.71
2022-10-24T17:25:28.215Z,13.72
2022-10-24T17:27:55.057Z,13.67
2022-10-24T17:30:24.677Z,13.71
2022-10-24T17:32:51.568Z,13.71
2022-10-24T17:35:20.852Z,13.66
2022-10-24T17:37:59.277Z,13.71
2022-10-24T17:40:29.604Z,13.72
2022-10-24T17:42:56.285Z,13.76
2022-10-24T17:45:24.969Z,13.74
2022-10-24T17:47:51.662Z,13.78
2022-10-24T17:50:18.945Z,13.78
2022-10-24T17:52:50.676Z,13.79
2022-10-24T17:55:44.524Z,13.84
2022-10-24T17:58:09.410Z,13.85
2022-10-24T18:00:36.286Z,13.86
2022-10-24T18:03:03.368Z,13.88
2022-10-24T18:05:29.846Z,13.88
2022-10-24T18:07:57.798Z,13.89
2022-10-24T18:10:24.571Z,13.91
2022-10-24T18:12:51.045Z,13.93
2022-10-24T18:15:21.394Z,13.92
2022-10-24T18:17:48.795Z,13.92
2022-10-24T18:20:15.784Z,13.92
2022-10-24T18:22:43.795Z,13.87
2022-10-24T18:25:12.456Z,13.83
2022-10-24T18:27:39.402Z,13.82
2022-10-24T18:30:06.427Z,13.78
2022-10-24T18:32:33.338Z,13.78
2022-10-24T18:34:59.889Z,13.77
2022-10-24T18:37:26.346Z,13.75
2022-10-24T18:39:53.997Z,13.72
2022-10-24T18:42:43.610Z,13.72
2022-10-24T18:45:17.234Z,13.66
2022-10-24T18:47:44.288Z,13.63
2022-10-24T18:50:15.574Z,13.63
2022-10-24T18:53:05.912Z,13.59
2022-10-24T18:55:34.055Z,13.54
2022-10-24T18:58:00.812Z,13.52
2022-10-24T19:00:30.200Z,13.52
2022-10-24T19:03:13.418Z,13.52
2022-10-24T19:05:52.014Z,13.53
2022-10-24T19:08:23.484Z,13.53
2022-10-24T19:10:55.748Z,13.53
2022-10-24T19:13:24.041Z,13.52
2022-10-24T19:15:57.756Z,13.49
2022-10-24T19:18:25.504Z,13.50
2022-10-24T19:20:51.867Z,13.48
2022-10-24T19:23:18.602Z,13.47
2022-10-24T19:25:45.405Z,13.44
2022-10-24T19:28:16.279Z,13.42
2022-10-24T19:30:44.622Z,13.47
2022-10-24T19:33:12.987Z,13.46
2022-10-24T19:35:45.012Z,13.47
2022-10-24T19:38:11.432Z,13.49
2022-10-24T19:40:44.698Z,13.52
2022-10-24T19:43:11.066Z,13.55
2022-10-24T19:45:39.514Z,13.55
2022-10-24T19:48:08.909Z,13.58
2022-10-24T19:50:35.449Z,13.58
2022-10-24T19:53:01.944Z,13.58
2022-10-24T19:55:28.534Z,13.60
2022-10-24T19:57:55.066Z,13.62
2022-10-24T20:00:21.797Z,13.63
2022-10-24T20:02:48.539Z,13.66
2022-10-24T20:05:15.339Z,13.67
2022-10-24T20:07:41.701Z,13.69
2022-10-24T20:10:08.404Z,13.71
2022-10-24T20:12:34.896Z,13.70
2022-10-24T20:15:01.286Z,13.69
2022-10-24T20:17:27.678Z,13.70
2022-10-24T20:19:54.069Z,13.70
2022-10-24T20:22:20.483Z,13.68
2022-10-24T20:24:46.865Z,13.66
2022-10-24T20:27:13.428Z,13.65
2022-10-24T20:29:39.878Z,13.62
2022-10-24T20:32:06.393Z,13.59
2022-10-24T20:34:32.734Z,13.54
2022-10-24T20:36:59.177Z,13.52
2022-10-24T20:39:26.119Z,13.48
2022-10-24T20:41:54.176Z,13.46
2022-10-24T20:44:21.383Z,13.44
2022-10-24T20:46:47.805Z,13.42
2022-10-24T20:49:14.233Z,13.42
2022-10-24T20:51:42.338Z,13.38
2022-10-24T20:54:10.066Z,13.35
2022-10-24T20:56:41.781Z,13.31
2022-10-24T20:59:08.999Z,13.32
2022-10-24T21:01:35.449Z,13.33
2022-10-24T21:04:01.874Z,13.35
2022-10-24T21:06:30.473Z,13.29
2022-10-24T21:08:59.811Z,13.35
2022-10-24T21:11:29.016Z,13.35
2022-10-24T21:13:58.327Z,13.34
2022-10-24T21:16:25.234Z,13.34
2022-10-24T21:18:52.206Z,13.29
2022-10-24T21:21:19.881Z,13.25
2022-10-24T21:23:50.764Z,13.15
2022-10-24T21:26:17.670Z,13.07
2022-10-24T21:28:44.123Z,12.95
2022-10-24T21:31:12.892Z,12.80
2022-10-24T21:33:41.538Z,12.70
2022-10-24T21:36:26.025Z,12.67
2022-10-24T21:38:57.058Z,12.61
2022-10-24T21:41:24.020Z,12.54
2022-10-24T21:43:51.890Z,12.47
2022-10-24T21:46:21.154Z,12.44
2022-10-24T21:48:49.862Z,12.43
2022-10-24T21:51:26.077Z,12.40
2022-10-24T21:53:58.327Z,12.35
2022-10-24T21:56:28.195Z,12.34
2022-10-24T21:59:00.604Z,12.36
2022-10-24T22:01:30.175Z,12.36
2022-10-24T22:03:59.733Z,12.31
2022-10-24T22:06:27.608Z,12.30
2022-10-24T22:08:54.816Z,12.31
2022-10-24T22:11:24.569Z,12.32
2022-10-24T22:13:51.343Z,12.31
2022-10-24T22:16:20.095Z,12.30
2022-10-24T22:18:47.368Z,12.25
2022-10-24T22:21:30.539Z,12.24
2022-10-24T22:24:01.960Z,12.19
2022-10-24T22:26:29.284Z,12.18
2022-10-24T22:28:55.914Z,12.16
2022-10-24T22:31:24.731Z,12.16
2022-10-24T22:33:51.900Z,12.15
2022-10-24T22:36:24.222Z,12.17
2022-10-24T22:38:54.309Z,12.17
2022-10-24T22:41:22.057Z,12.14
2022-10-24T22:43:49.281Z,12.09
2022-10-24T22:46:47.930Z,12.02
2022-10-24T22:49:40.194Z,11.95
2022-10-24T22:52:10.257Z,11.90
2022-10-24T22:54:37.363Z,11.89
2022-10-24T22:57:05.058Z,11.81
2022-10-24T22:59:32.236Z,11.83
2022-10-24T23:02:01.797Z,11.83
2022-10-24T23:04:38.712Z,11.81
2022-10-24T23:07:30.703Z,11.77
2022-10-24T23:09:57.092Z,11.73
2022-10-24T23:12:23.882Z,11.67
2022-10-24T23:14:50.857Z,11.66
2022-10-24T23:17:26.618Z,11.66
2022-10-24T23:19:54.269Z,11.65
2022-10-24T23:22:29.470Z,11.65
2022-10-24T23:24:58.196Z,11.66
2022-10-24T23:27:38.264Z,11.65
2022-10-24T23:30:18.758Z,11.67
2022-10-24T23:32:47.640Z,11.67
2022-10-24T23:35:16.345Z,11.67
2022-10-24T23:37:45.664Z,11.70
2022-10-24T23:40:17.407Z,11.68
2022-10-24T23:42:45.432Z,11.71
2022-10-24T23:45:14.086Z,11.71
2022-10-24T23:47:50.250Z,11.72
2022-10-24T23:50:49.210Z,11.74
2022-10-24T23:53:34.131Z,11.72
2022-10-24T23:58:32.150Z,11.77
